aviador You're here:

KLBX Decoded Metar

ANGLETON in TX, USA
Report Time2017-04-29 16:53:00
UTC Time2017-04-29 17:45:28
Flight Rules mvfr MVFR
Wind160° at 20 Gusting to 35 kt
W.Decomp.*RWY 17: 19.3 kt HW 5.2 kt LCW
W.Rank160° ranks 4
Current wind is above 160° avg. (9.9)
Visibility9999 m
Phenomena:N/A
Clouds:Overcast 017 Hf
Expected CloudBase > 1,600 ft AGL from Temp-Dew spread
Ceiling1,700 ft
Temp29°C (ISA +14)
Dew Point25°C (79% RH)
Heat Index34.5°C
AAT28.2°C
QNH1005 hPa
Density Alt2,316 ft
Elevation20 ft
Report Wrong Elevation
Raw Report
METAR KLBX 291653Z AUTO 16020G35KT 7SM OVC017 29/25 A2967 RMK AO2 PK
WND 16037/1604 SLP048 T02890250=

Extra information for KLBX:More info

Metar Taf Metar & Taf Last 4 Metars F.Rules Stats Wind Profile Meteogram Temp Stats Airport Information Weather charts Add Link Nearby VenuesMetar ALERT Operation Metar Decoded Social comments

AIRNAV info for KLBX